createdAt,value
2022-12-07T00:01:44.936Z,9.20
2022-12-07T00:04:18.541Z,8.30
2022-12-07T00:06:48.507Z,8.63
2022-12-07T00:09:22.042Z,9.43
2022-12-07T00:11:52.199Z,8.40
2022-12-07T00:14:20.889Z,8.50
2022-12-07T00:16:51.807Z,8.03
2022-12-07T00:19:22.145Z,9.00
2022-12-07T00:21:57.205Z,7.50
2022-12-07T00:24:26.769Z,7.80
2022-12-07T00:26:54.726Z,7.17
2022-12-07T00:29:24.288Z,8.80
2022-12-07T00:31:54.291Z,8.00
2022-12-07T00:34:23.717Z,8.67
2022-12-07T00:36:52.785Z,7.13
2022-12-07T00:39:20.897Z,8.27
2022-12-07T00:41:50.225Z,8.40
2022-12-07T00:44:18.192Z,7.57
2022-12-07T00:46:46.825Z,7.43
2022-12-07T00:49:14.841Z,7.80
2022-12-07T00:51:42.858Z,7.17
2022-12-07T00:54:10.874Z,8.30
2022-12-07T00:56:38.790Z,6.87
2022-12-07T00:59:14.336Z,7.00
2022-12-07T01:01:42.389Z,7.00
2022-12-07T01:04:10.731Z,7.00
2022-12-07T01:06:38.698Z,6.57
2022-12-07T01:09:07.117Z,6.57
2022-12-07T01:11:35.107Z,6.87
2022-12-07T01:14:03.486Z,7.00
2022-12-07T01:16:45.226Z,6.87
2022-12-07T01:19:13.557Z,6.80
2022-12-07T01:21:41.457Z,7.57
2022-12-07T01:24:12.664Z,6.77
2022-12-07T01:26:40.782Z,7.67
2022-12-07T01:29:08.719Z,6.10
2022-12-07T01:31:36.529Z,6.93
2022-12-07T01:34:05.918Z,7.20
2022-12-07T01:36:36.507Z,6.33
2022-12-07T01:39:07.140Z,6.30
2022-12-07T01:41:37.700Z,6.57
2022-12-07T01:44:21.642Z,5.97
2022-12-07T01:46:51.185Z,6.33
2022-12-07T01:49:26.797Z,6.27
2022-12-07T01:52:03.575Z,5.60
2022-12-07T01:54:31.860Z,5.70
2022-12-07T01:57:00.226Z,5.70
2022-12-07T01:59:28.603Z,5.73
2022-12-07T02:01:57.902Z,5.47
2022-12-07T02:04:27.533Z,5.40
2022-12-07T02:06:57.092Z,4.93
2022-12-07T02:09:25.379Z,5.60
2022-12-07T02:11:55.736Z,5.63
2022-12-07T02:18:23.354Z,4.77
2022-12-07T02:21:00.030Z,5.27
2022-12-07T02:23:52.305Z,4.90
2022-12-07T02:26:50.505Z,5.40
2022-12-07T02:29:26.977Z,5.37
2022-12-07T02:32:06.233Z,4.70
2022-12-07T02:34:42.287Z,4.97
2022-12-07T02:37:19.521Z,5.23
2022-12-07T02:39:53.272Z,5.80
2022-12-07T02:42:27.649Z,5.33
2022-12-07T02:44:57.319Z,5.70
2022-12-07T02:47:27.250Z,5.93
2022-12-07T02:49:55.541Z,5.30
2022-12-07T02:52:23.321Z,5.40
2022-12-07T02:54:51.323Z,5.93
2022-12-07T02:57:49.724Z,5.73
2022-12-07T03:00:21.995Z,5.63
2022-12-07T03:02:56.086Z,5.93
2022-12-07T03:05:56.593Z,5.90
2022-12-07T03:08:33.401Z,5.83
2022-12-07T03:11:05.870Z,5.83
2022-12-07T03:13:41.535Z,6.23
2022-12-07T03:16:17.257Z,6.23
2022-12-07T03:19:01.060Z,5.40
2022-12-07T03:21:34.293Z,6.73
2022-12-07T03:24:07.755Z,5.80
2022-12-07T03:26:39.574Z,5.83
2022-12-07T03:29:14.975Z,6.73
2022-12-07T03:31:50.137Z,6.40
2022-12-07T03:34:25.102Z,6.40
2022-12-07T03:36:57.880Z,7.00
2022-12-07T03:39:33.064Z,7.17
2022-12-07T03:42:03.955Z,7.63
2022-12-07T03:44:32.266Z,7.50
2022-12-07T03:47:05.969Z,7.10
2022-12-07T03:49:42.111Z,7.67
2022-12-07T03:52:19.984Z,7.93
2022-12-07T03:54:54.075Z,7.83
2022-12-07T03:57:23.832Z,6.67
2022-12-07T03:59:53.301Z,6.97
2022-12-07T04:02:23.263Z,7.30
2022-12-07T04:04:51.434Z,7.47
2022-12-07T04:07:19.355Z,7.63
2022-12-07T04:09:47.402Z,7.43
2022-12-07T04:12:15.226Z,8.23
2022-12-07T04:14:43.089Z,7.87
2022-12-07T04:17:11.533Z,7.17
2022-12-07T04:19:40.887Z,7.90
2022-12-07T04:22:09.680Z,8.57
2022-12-07T04:24:37.732Z,8.83
2022-12-07T04:27:05.691Z,8.63
2022-12-07T04:29:33.665Z,8.97
2022-12-07T04:35:53.864Z,10.27
2022-12-07T04:38:21.933Z,10.23
2022-12-07T04:40:49.882Z,9.83
2022-12-07T04:43:17.762Z,9.83
2022-12-07T04:45:49.309Z,10.37
2022-12-07T04:48:17.570Z,9.93
2022-12-07T04:50:46.474Z,10.43
2022-12-07T04:53:15.967Z,11.10
2022-12-07T04:55:43.882Z,11.63
2022-12-07T04:58:11.791Z,13.53
2022-12-07T05:00:39.886Z,11.93
2022-12-07T05:03:08.048Z,12.40
2022-12-07T05:05:35.915Z,12.10
2022-12-07T05:08:03.917Z,12.87
2022-12-07T05:10:33.163Z,11.53
2022-12-07T05:13:01.226Z,11.97
2022-12-07T05:15:29.054Z,12.67
2022-12-07T05:17:56.970Z,12.40
2022-12-07T05:20:24.999Z,11.03
2022-12-07T05:22:52.966Z,11.67
2022-12-07T05:25:20.828Z,11.53
2022-12-07T05:27:50.267Z,12.93
2022-12-07T05:30:19.130Z,11.97
2022-12-07T05:32:47.094Z,12.10
2022-12-07T05:35:14.918Z,11.30
2022-12-07T05:37:43.023Z,13.67
2022-12-07T05:40:12.344Z,12.43
2022-12-07T05:42:41.362Z,12.73
2022-12-07T05:45:12.351Z,12.60
2022-12-07T05:47:40.326Z,11.13
2022-12-07T05:50:09.428Z,13.03
2022-12-07T05:52:37.569Z,13.70
2022-12-07T05:55:08.065Z,14.00
2022-12-07T05:57:35.891Z,13.30
2022-12-07T06:00:06.349Z,12.83
2022-12-07T06:02:35.937Z,12.70
2022-12-07T06:05:03.822Z,12.27
2022-12-07T06:07:32.897Z,13.03
2022-12-07T06:10:01.381Z,13.47
2022-12-07T06:12:34.795Z,13.40
2022-12-07T06:15:02.771Z,13.90
2022-12-07T06:17:30.700Z,13.60
2022-12-07T06:20:00.322Z,13.40
2022-12-07T06:22:28.648Z,13.83
2022-12-07T06:24:57.748Z,13.63
2022-12-07T06:27:25.902Z,14.20
2022-12-07T06:29:53.909Z,15.47
2022-12-07T06:32:21.982Z,14.90
2022-12-07T06:34:49.924Z,16.47
2022-12-07T06:37:19.053Z,13.80
2022-12-07T06:39:46.997Z,14.50
2022-12-07T06:42:14.964Z,12.57
2022-12-07T06:44:44.999Z,12.67
2022-12-07T06:50:02.330Z,14.27
2022-12-07T06:52:32.692Z,13.03
2022-12-07T06:55:00.490Z,14.73
2022-12-07T06:57:28.570Z,13.90
2022-12-07T06:59:56.614Z,14.10
2022-12-07T07:02:25.045Z,14.50
2022-12-07T07:04:53.144Z,14.97
2022-12-07T07:07:21.169Z,16.27
2022-12-07T07:09:52.161Z,14.67
2022-12-07T07:12:20.378Z,16.77
2022-12-07T07:14:51.394Z,15.77
2022-12-07T07:17:19.309Z,14.57
2022-12-07T07:19:47.405Z,14.57
2022-12-07T07:22:15.914Z,13.07
2022-12-07T07:24:45.975Z,14.93
2022-12-07T07:27:15.802Z,15.10
2022-12-07T07:29:44.693Z,15.27
2022-12-07T07:32:13.503Z,14.53
2022-12-07T07:34:42.534Z,13.03
2022-12-07T07:37:11.956Z,13.10
2022-12-07T07:39:39.923Z,13.00
2022-12-07T07:42:08.484Z,11.93
2022-12-07T07:44:38.005Z,12.27
2022-12-07T07:47:06.408Z,11.87
2022-12-07T07:49:34.886Z,10.00
2022-12-07T07:52:02.829Z,11.07
2022-12-07T07:54:30.962Z,10.17
2022-12-07T07:56:58.970Z,9.87
2022-12-07T07:59:27.306Z,10.50
2022-12-07T08:01:56.912Z,11.67
2022-12-07T08:04:27.727Z,11.80
2022-12-07T08:06:55.867Z,12.57
2022-12-07T08:09:24.016Z,9.50
2022-12-07T08:11:52.250Z,11.83
2022-12-07T08:14:20.374Z,7.27
2022-12-07T08:16:48.474Z,8.00
2022-12-07T08:19:18.042Z,7.20
2022-12-07T08:21:48.119Z,7.40
2022-12-07T08:24:16.368Z,7.17
2022-12-07T08:26:45.084Z,7.63
2022-12-07T08:29:14.404Z,7.17
2022-12-07T08:31:42.599Z,6.90
2022-12-07T08:34:12.491Z,5.93
2022-12-07T08:36:42.010Z,5.90
2022-12-07T08:42:01.135Z,5.70
2022-12-07T08:44:29.432Z,5.17
2022-12-07T08:47:01.475Z,4.40
2022-12-07T08:49:35.164Z,4.43
2022-12-07T08:52:07.228Z,3.40
2022-12-07T08:54:37.619Z,2.70
2022-12-07T08:57:07.227Z,2.80
2022-12-07T08:59:37.966Z,2.10
2022-12-07T09:02:06.430Z,2.43
2022-12-07T09:04:34.757Z,2.50
2022-12-07T09:07:05.329Z,2.53
2022-12-07T09:09:36.826Z,3.03
2022-12-07T09:12:05.496Z,2.90
2022-12-07T09:14:33.936Z,2.43
2022-12-07T09:17:07.744Z,2.30
2022-12-07T09:19:36.079Z,1.80
2022-12-07T09:22:05.747Z,2.10
2022-12-07T09:24:34.649Z,2.20
2022-12-07T09:27:03.018Z,2.23
2022-12-07T09:29:31.300Z,2.17
2022-12-07T09:31:59.574Z,2.07
2022-12-07T09:34:28.688Z,2.00
2022-12-07T09:37:04.106Z,2.00
2022-12-07T09:39:33.811Z,1.70
2022-12-07T09:42:06.820Z,2.03
2022-12-07T09:44:35.927Z,2.80
2022-12-07T09:47:06.321Z,3.10
2022-12-07T09:49:34.840Z,3.00
2022-12-07T09:52:05.457Z,2.70
2022-12-07T09:54:38.802Z,2.57
2022-12-07T09:57:07.397Z,2.80
2022-12-07T09:59:36.838Z,2.53
2022-12-07T10:02:31.335Z,1.97
2022-12-07T10:05:01.814Z,2.40
2022-12-07T10:07:31.698Z,2.60
2022-12-07T10:10:05.466Z,2.10
2022-12-07T10:12:59.642Z,2.73
2022-12-07T10:15:44.207Z,3.03
2022-12-07T10:18:34.899Z,1.97
2022-12-07T10:21:15.645Z,3.10
2022-12-07T10:24:00.618Z,2.43
2022-12-07T10:26:33.955Z,2.83
2022-12-07T10:29:16.929Z,3.80
2022-12-07T10:31:47.353Z,2.93
2022-12-07T10:34:25.785Z,3.30
2022-12-07T10:36:54.654Z,2.77
2022-12-07T10:39:25.535Z,3.10
2022-12-07T10:41:59.873Z,3.00
2022-12-07T10:44:30.490Z,3.23
2022-12-07T10:47:23.940Z,3.20
2022-12-07T10:50:09.638Z,2.80
2022-12-07T10:52:55.512Z,3.00
2022-12-07T10:55:30.052Z,3.50
2022-12-07T10:58:14.862Z,2.60
2022-12-07T11:00:50.758Z,3.07
2022-12-07T11:03:32.215Z,2.73
2022-12-07T11:06:13.939Z,3.27
2022-12-07T11:08:52.593Z,3.13
2022-12-07T11:11:30.749Z,2.50
2022-12-07T11:14:11.438Z,3.53
2022-12-07T11:16:54.149Z,3.70
2022-12-07T11:19:33.004Z,3.10
2022-12-07T11:22:06.075Z,3.20
2022-12-07T11:24:43.020Z,3.67
2022-12-07T11:27:22.170Z,3.70
2022-12-07T11:30:02.620Z,3.63
2022-12-07T11:32:48.061Z,3.83
2022-12-07T11:35:26.645Z,3.33
2022-12-07T11:38:10.139Z,4.60
2022-12-07T11:40:39.195Z,3.07
2022-12-07T11:43:15.769Z,3.80
2022-12-07T11:45:48.771Z,3.90
2022-12-07T11:48:22.628Z,3.50
2022-12-07T11:50:54.329Z,3.83
2022-12-07T11:53:26.571Z,3.80
2022-12-07T11:55:58.682Z,3.10
2022-12-07T11:58:49.712Z,3.70
2022-12-07T12:01:31.419Z,5.13
2022-12-07T12:04:07.855Z,3.60
2022-12-07T12:06:36.676Z,3.97
2022-12-07T12:15:24.743Z,2.93
2022-12-07T12:18:26.831Z,2.50
2022-12-07T12:21:00.942Z,3.03
2022-12-07T12:23:38.179Z,3.50
2022-12-07T12:26:09.104Z,3.13
2022-12-07T12:28:46.918Z,2.60
2022-12-07T12:31:35.445Z,2.90
2022-12-07T12:34:26.461Z,2.73
2022-12-07T12:36:55.785Z,2.60
2022-12-07T12:39:24.380Z,2.40
2022-12-07T12:42:10.344Z,2.90
2022-12-07T12:45:06.298Z,2.73
2022-12-07T12:47:44.401Z,3.37
2022-12-07T12:50:22.321Z,2.47
2022-12-07T12:53:04.593Z,2.73
2022-12-07T12:56:05.400Z,2.97
2022-12-07T12:58:40.021Z,2.70
2022-12-07T13:01:49.620Z,2.70
2022-12-07T13:04:50.577Z,2.90
2022-12-07T13:07:52.687Z,2.70
2022-12-07T13:10:35.520Z,2.70
2022-12-07T13:13:44.099Z,3.00
2022-12-07T13:16:42.640Z,4.90
2022-12-07T13:19:45.532Z,4.00
2022-12-07T13:22:42.790Z,2.37
2022-12-07T13:25:14.662Z,3.70
2022-12-07T13:27:49.662Z,3.60
2022-12-07T13:30:21.606Z,3.00
2022-12-07T13:32:55.122Z,2.90
2022-12-07T13:35:35.724Z,2.83
2022-12-07T13:38:08.427Z,3.20
2022-12-07T13:40:36.864Z,2.80
2022-12-07T13:43:15.054Z,2.70
2022-12-07T13:45:50.256Z,2.40
2022-12-07T13:48:27.963Z,3.10
2022-12-07T13:50:58.143Z,2.80
2022-12-07T13:53:29.055Z,2.80
2022-12-07T13:55:59.074Z,2.53
2022-12-07T13:58:32.000Z,2.50
2022-12-07T14:01:00.467Z,2.67
2022-12-07T14:03:35.169Z,2.73
2022-12-07T14:06:14.237Z,2.27
2022-12-07T14:08:42.412Z,2.60
2022-12-07T14:11:15.111Z,2.40
2022-12-07T14:13:52.730Z,8.10
2022-12-07T14:16:27.176Z,3.30
2022-12-07T14:18:55.921Z,2.70
2022-12-07T14:21:25.545Z,2.80
2022-12-07T14:24:20.858Z,3.67
2022-12-07T14:26:50.335Z,2.37
2022-12-07T14:29:31.588Z,2.43
2022-12-07T14:32:00.819Z,2.53
2022-12-07T14:34:28.933Z,2.70
2022-12-07T14:36:56.875Z,2.60
2022-12-07T14:39:24.987Z,2.80
2022-12-07T14:41:53.135Z,3.23
2022-12-07T14:44:28.124Z,3.20
2022-12-07T14:49:46.483Z,2.80
2022-12-07T14:55:14.609Z,2.73
2022-12-07T14:57:42.956Z,2.83
2022-12-07T15:00:16.763Z,3.13
2022-12-07T15:02:45.580Z,2.43
2022-12-07T15:05:45.878Z,2.60
2022-12-07T15:08:17.407Z,2.13
2022-12-07T15:10:45.843Z,3.47
2022-12-07T15:13:36.618Z,2.20
2022-12-07T15:17:16.663Z,2.80
2022-12-07T15:24:05.753Z,3.13
2022-12-07T15:26:37.014Z,2.70
2022-12-07T15:29:05.539Z,2.80
2022-12-07T15:31:55.086Z,2.73
2022-12-07T15:34:23.865Z,2.83
2022-12-07T15:36:55.540Z,2.60
2022-12-07T15:39:24.785Z,2.50
2022-12-07T15:41:53.069Z,3.20
2022-12-07T15:44:38.567Z,2.80
2022-12-07T15:47:07.148Z,4.70
2022-12-07T15:49:37.589Z,2.43
2022-12-07T15:56:03.450Z,4.33
2022-12-07T15:59:06.617Z,3.83
2022-12-07T16:01:43.255Z,2.73
2022-12-07T16:04:19.374Z,2.70
2022-12-07T16:07:14.136Z,3.03
2022-12-07T16:10:03.154Z,2.40
2022-12-07T16:12:33.564Z,3.27
2022-12-07T16:15:02.255Z,2.93
2022-12-07T16:17:30.839Z,5.20
2022-12-07T16:19:59.032Z,2.60
2022-12-07T16:22:30.999Z,2.63
2022-12-07T16:24:59.045Z,3.00
2022-12-07T16:27:27.628Z,3.07
2022-12-07T16:29:55.800Z,2.53
2022-12-07T16:32:23.816Z,2.47
2022-12-07T16:34:52.678Z,2.50
2022-12-07T16:37:21.148Z,2.90
2022-12-07T16:39:50.925Z,2.30
2022-12-07T16:42:18.989Z,2.67
2022-12-07T16:44:47.290Z,2.60
2022-12-07T16:47:16.448Z,2.70
2022-12-07T16:49:53.025Z,2.93
2022-12-07T16:52:25.191Z,2.70
2022-12-07T16:54:54.924Z,3.27
2022-12-07T16:57:24.108Z,3.20
2022-12-07T16:59:57.246Z,3.17
2022-12-07T17:02:25.142Z,2.63
2022-12-07T17:04:53.348Z,2.90
2022-12-07T17:07:21.434Z,3.27
2022-12-07T17:09:49.419Z,3.20
2022-12-07T17:12:19.533Z,3.13
2022-12-07T17:15:05.353Z,2.80
2022-12-07T17:17:37.773Z,2.87
2022-12-07T17:20:06.609Z,2.87
2022-12-07T17:22:34.634Z,3.80
2022-12-07T17:25:02.921Z,3.47
2022-12-07T17:27:32.577Z,2.57
2022-12-07T17:30:00.398Z,3.10
2022-12-07T17:32:28.604Z,3.60
2022-12-07T17:34:56.626Z,3.00
2022-12-07T17:37:24.898Z,2.87
2022-12-07T17:39:54.570Z,3.03
2022-12-07T17:42:42.560Z,3.43
2022-12-07T17:45:12.786Z,3.80
2022-12-07T17:47:41.492Z,2.60
2022-12-07T17:50:15.582Z,3.10
2022-12-07T17:53:00.660Z,3.20
2022-12-07T17:55:28.761Z,2.77
2022-12-07T17:57:56.686Z,4.23
2022-12-07T18:00:26.818Z,3.70
2022-12-07T18:02:55.068Z,3.60
2022-12-07T18:05:23.678Z,3.50
2022-12-07T18:07:52.955Z,3.00
2022-12-07T18:10:21.007Z,2.80
2022-12-07T18:12:52.077Z,3.03
2022-12-07T18:15:20.979Z,4.07
2022-12-07T18:17:51.978Z,3.17
2022-12-07T18:20:20.300Z,3.60
2022-12-07T18:22:48.247Z,3.27
2022-12-07T18:25:16.305Z,3.33
2022-12-07T18:27:44.577Z,3.50
2022-12-07T18:30:13.839Z,4.23
2022-12-07T18:32:44.044Z,3.57
2022-12-07T18:35:13.568Z,3.50
2022-12-07T18:37:42.588Z,4.10
2022-12-07T18:40:12.234Z,3.50
2022-12-07T18:42:40.132Z,5.67
2022-12-07T18:45:09.920Z,4.63
2022-12-07T18:47:37.849Z,3.93
2022-12-07T18:50:06.541Z,6.00
2022-12-07T18:52:36.035Z,3.60
2022-12-07T18:55:04.595Z,4.70
2022-12-07T18:57:34.287Z,4.17
2022-12-07T19:00:03.437Z,4.03
2022-12-07T19:02:31.465Z,3.40
2022-12-07T19:04:59.541Z,4.03
2022-12-07T19:07:27.364Z,3.57
2022-12-07T19:09:56.692Z,4.37
2022-12-07T19:12:24.887Z,4.13
2022-12-07T19:14:55.943Z,3.70
2022-12-07T19:17:24.044Z,3.43
2022-12-07T19:19:52.029Z,3.97
2022-12-07T19:22:21.740Z,3.70
2022-12-07T19:24:52.890Z,3.70
2022-12-07T19:27:23.662Z,3.73
2022-12-07T19:29:52.088Z,3.67
2022-12-07T19:32:24.336Z,3.90
2022-12-07T19:38:08.106Z,4.33
2022-12-07T19:40:36.246Z,4.53
2022-12-07T19:43:05.522Z,4.33
2022-12-07T19:45:35.471Z,4.93
2022-12-07T19:48:03.959Z,5.80
2022-12-07T19:50:32.214Z,6.33
2022-12-07T19:53:00.349Z,5.57
2022-12-07T19:55:28.463Z,4.93
2022-12-07T20:02:19.366Z,4.10
2022-12-07T20:04:48.661Z,3.60
2022-12-07T20:07:16.934Z,3.63
2022-12-07T20:09:45.266Z,4.00
2022-12-07T20:12:39.342Z,4.20
2022-12-07T20:15:11.158Z,4.13
2022-12-07T20:17:40.454Z,4.03
2022-12-07T20:20:09.773Z,4.67
2022-12-07T20:22:38.203Z,4.53
2022-12-07T20:25:06.839Z,4.73
2022-12-07T20:27:35.004Z,4.93
2022-12-07T20:30:03.528Z,4.80
2022-12-07T20:32:31.532Z,4.60
2022-12-07T20:35:01.200Z,4.27
2022-12-07T20:37:29.426Z,4.53
2022-12-07T20:39:57.578Z,5.23
2022-12-07T20:42:40.649Z,5.83
2022-12-07T20:45:12.037Z,6.30
2022-12-07T20:47:39.994Z,5.43
2022-12-07T20:50:10.513Z,4.50
2022-12-07T20:52:38.415Z,5.30
2022-12-07T20:55:07.020Z,5.30
2022-12-07T20:57:35.145Z,4.83
2022-12-07T21:00:06.832Z,4.73
2022-12-07T21:02:34.909Z,4.60
2022-12-07T21:05:03.163Z,5.00
2022-12-07T21:07:33.821Z,4.57
2022-12-07T21:10:05.853Z,4.53
2022-12-07T21:12:33.876Z,5.00
2022-12-07T21:15:02.259Z,8.73
2022-12-07T21:17:30.468Z,5.20
2022-12-07T21:19:58.588Z,4.97
2022-12-07T21:22:27.354Z,5.80
2022-12-07T21:24:59.162Z,5.30
2022-12-07T21:27:27.067Z,5.00
2022-12-07T21:29:55.118Z,4.83
2022-12-07T21:32:23.292Z,4.93
2022-12-07T21:34:51.400Z,4.80
2022-12-07T21:37:19.563Z,5.20
2022-12-07T21:39:47.831Z,5.43
2022-12-07T21:42:20.951Z,5.07
2022-12-07T21:44:50.939Z,7.07
2022-12-07T21:47:18.847Z,6.70
2022-12-07T21:49:46.757Z,5.07
2022-12-07T21:52:14.859Z,4.97
2022-12-07T21:54:44.663Z,5.67
2022-12-07T21:57:12.637Z,5.93
2022-12-07T21:59:42.252Z,4.33
2022-12-07T22:02:14.470Z,8.90
2022-12-07T22:04:42.539Z,5.00
2022-12-07T22:07:12.317Z,4.70
2022-12-07T22:09:40.391Z,5.07
2022-12-07T22:12:14.213Z,5.33
2022-12-07T22:15:01.680Z,4.93
2022-12-07T22:17:32.888Z,4.40
2022-12-07T22:20:00.880Z,5.20
2022-12-07T22:22:28.956Z,4.67
2022-12-07T22:24:57.075Z,5.57
2022-12-07T22:27:24.856Z,5.53
2022-12-07T22:29:54.178Z,6.17
2022-12-07T22:32:47.639Z,4.93
2022-12-07T22:35:11.008Z,5.77
2022-12-07T22:37:38.981Z,5.67
2022-12-07T22:40:10.733Z,6.10
2022-12-07T22:42:38.932Z,6.10
2022-12-07T22:45:09.730Z,5.40
2022-12-07T22:47:40.198Z,5.47
2022-12-07T22:50:09.527Z,5.33
2022-12-07T22:52:37.470Z,6.00
2022-12-07T22:55:06.362Z,6.33
2022-12-07T22:57:37.349Z,5.80
2022-12-07T23:00:11.057Z,5.50
2022-12-07T23:02:40.493Z,6.47
2022-12-07T23:05:09.534Z,6.23
2022-12-07T23:07:39.732Z,5.67
2022-12-07T23:10:09.378Z,5.50
2022-12-07T23:12:55.287Z,5.30
2022-12-07T23:15:23.388Z,5.67
2022-12-07T23:17:58.871Z,5.53
2022-12-07T23:20:31.196Z,7.93
2022-12-07T23:29:57.255Z,5.40
2022-12-07T23:32:25.391Z,4.97
2022-12-07T23:38:46.631Z,5.73
2022-12-07T23:41:16.761Z,5.87
2022-12-07T23:43:45.175Z,5.37
2022-12-07T23:46:15.950Z,5.80
2022-12-07T23:48:44.188Z,5.50
2022-12-07T23:51:13.493Z,6.33
2022-12-07T23:53:44.859Z,5.90
2022-12-07T23:56:13.841Z,4.30
2022-12-07T23:58:42.496Z,5.93
